Time;durP1;ratioP1;P1;durP2;ratioP2;P2;SDS_P1;SDS_P2;PMS_P1;PMS_P2;Temp;Humidity;BMP_temperature;BMP_pressure;BME280_temperature;BME280_humidity;BME280_pressure;Samples;Min_cycle;Max_cycle;Signal;HPM_P1;HPM_P2
2022/04/26 03:37:17;;;;;;;12.10;8.53;;;;;;;5.73;85.55;100426.19;5011566;28;20259;-69
2022/04/26 03:39:43;;;;;;;15.68;11.25;;;;;;;5.71;85.09;100428.97;5011928;28;20030;-71
2022/04/26 03:42:09;;;;;;;11.13;8.90;;;;;;;5.56;86.10;100410.09;5012237;28;20096;-69
2022/04/26 03:44:34;;;;;;;13.27;9.10;;;;;;;5.80;85.53;100436.09;5012087;28;20033;-72
2022/04/26 03:47:00;;;;;;;11.40;8.23;;;;;;;5.78;85.14;100418.69;5013407;28;20044;-71
2022/04/26 03:49:25;;;;;;;12.83;8.50;;;;;;;5.77;85.07;100417.84;5015593;28;20088;-71
2022/04/26 03:51:54;;;;;;;13.27;9.00;;;;;;;5.96;85.60;100447.94;5015183;28;20052;-69
2022/04/26 03:54:23;;;;;;;;;;;;;;;6.06;85.49;100446.09;5015701;28;20091;-70
2022/04/26 03:56:49;;;;;;;10.57;7.80;;;;;;;6.03;85.14;100428.72;5015425;28;20308;-72
2022/04/26 03:59:16;;;;;;;9.73;8.20;;;;;;;6.14;84.90;100435.66;5015297;28;20053;-71
2022/04/26 04:01:42;;;;;;;10.97;8.23;;;;;;;6.23;84.70;100445.38;5015642;28;20049;-70
2022/04/26 04:04:07;;;;;;;10.93;7.70;;;;;;;6.26;83.96;100438.97;5014934;28;20401;-70
2022/04/26 04:06:33;;;;;;;12.53;7.90;;;;;;;6.40;83.81;100449.13;5014799;28;20132;-69
2022/04/26 04:08:59;;;;;;;9.20;7.17;;;;;;;6.39;83.23;100444.81;5015014;28;20530;-66
2022/04/26 04:11:27;;;;;;;10.03;8.00;;;;;;;6.47;83.62;100432.50;5014790;28;20485;-68
2022/04/26 04:13:53;;;;;;;10.93;7.78;;;;;;;6.62;81.95;100432.88;5014738;28;20072;-68
2022/04/26 04:16:18;;;;;;;9.67;7.27;;;;;;;6.58;82.02;100415.63;5014453;28;20030;-74
2022/04/26 04:21:35;;;;;;;10.27;7.03;;;;;;;6.55;82.02;100433.59;5014582;28;20034;-68
2022/04/26 04:24:01;;;;;;;10.77;6.90;;;;;;;6.58;82.80;100431.50;5014601;28;20390;-67
2022/04/26 04:26:52;;;;;;;8.27;7.47;;;;;;;6.61;82.61;100427.72;5013612;28;20078;-65
2022/04/26 04:29:17;;;;;;;10.10;7.10;;;;;;;6.59;81.07;100424.38;5014001;28;20058;-67
2022/04/26 04:31:43;;;;;;;8.23;7.10;;;;;;;6.69;81.08;100435.78;5013964;28;20042;-71
2022/04/26 04:34:11;;;;;;;10.47;6.43;;;;;;;6.78;81.31;100445.50;4996845;28;20065;-71
2022/04/26 04:36:39;;;;;;;10.77;6.47;;;;;;;6.77;81.18;100436.72;5017132;28;20516;-76
2022/04/26 04:39:05;;;;;;;8.35;6.30;;;;;;;6.76;81.11;100423.63;4999732;28;20505;-69
2022/04/26 04:41:37;;;;;;;10.03;6.23;;;;;;;6.75;80.10;100429.91;5015506;28;20037;-74
2022/04/26 04:44:07;;;;;;;8.27;6.87;;;;;;;6.69;80.52;100428.69;5014401;28;20412;-70
2022/04/26 04:46:33;;;;;;;9.23;7.13;;;;;;;6.63;80.99;100431.88;4982326;28;20077;-72
2022/04/26 04:48:58;;;;;;;10.30;8.30;;;;;;;6.50;81.36;100421.66;5018130;28;20042;-65
2022/04/26 04:51:24;;;;;;;7.33;5.70;;;;;;;6.59;81.54;100427.03;5015461;28;20503;-69
2022/04/26 04:53:50;;;;;;;7.43;6.10;;;;;;;6.67;81.27;100421.88;5014367;28;20128;-70
2022/04/26 04:56:16;;;;;;;7.33;6.50;;;;;;;6.18;80.44;100341.84;5014097;28;20033;-68
2022/04/26 04:58:43;;;;;;;7.67;6.73;;;;;;;6.71;80.48;100412.66;5014372;28;20045;-70
2022/04/26 05:01:09;;;;;;;6.57;5.80;;;;;;;6.90;80.27;100433.72;5012918;28;20088;-70
2022/04/26 05:03:34;;;;;;;6.67;5.50;;;;;;;6.77;80.47;100430.59;5012590;28;20504;-70
2022/04/26 05:06:00;;;;;;;9.47;5.83;;;;;;;6.14;80.98;100337.84;5013823;28;20038;-70
2022/04/26 05:08:26;;;;;;;7.17;5.60;;;;;;;6.62;80.88;100432.03;5013002;28;20041;-71
2022/04/26 05:10:52;;;;;;;7.60;5.63;;;;;;;6.49;80.84;100435.84;4995670;28;20064;-68
2022/04/26 05:13:17;;;;;;;6.73;5.30;;;;;;;6.48;82.09;100433.34;5012982;28;20040;-69
2022/04/26 05:15:44;;;;;;;8.20;5.70;;;;;;;6.44;80.90;100422.22;5012839;28;20030;-64
2022/04/26 05:18:14;;;;;;;8.10;5.87;;;;;;;6.55;81.62;100426.50;4995739;28;20033;-62
2022/04/26 05:20:43;;;;;;;9.10;7.37;;;;;;;6.67;81.10;100421.88;5013386;28;20390;-66
2022/04/26 05:25:56;;;;;;;6.93;5.77;;;;;;;7.25;78.98;100430.34;5013843;28;20394;-66
2022/04/26 05:28:22;;;;;;;6.97;5.80;;;;;;;7.09;78.98;100417.75;5015341;28;20054;-64
2022/04/26 05:30:47;;;;;;;5.37;4.87;;;;;;;7.01;79.21;100436.19;5015071;28;20053;-64
2022/04/26 05:33:13;;;;;;;8.33;5.60;;;;;;;6.98;80.09;100433.84;4998251;28;20034;-65
2022/04/26 05:35:39;;;;;;;7.43;6.10;;;;;;;6.95;79.96;100415.63;5015222;28;20049;-66
2022/04/26 05:38:04;;;;;;;7.50;6.23;;;;;;;6.95;80.21;100405.03;5015390;28;20034;-69
2022/04/26 05:40:30;;;;;;;9.80;5.77;;;;;;;7.10;79.37;100427.34;5015844;28;20046;-67
2022/04/26 05:42:56;;;;;;;7.13;5.40;;;;;;;7.24;78.99;100417.25;5016168;28;20088;-68
2022/04/26 05:45:23;;;;;;;7.20;5.87;;;;;;;7.43;77.82;100422.41;4997334;28;20081;-69
2022/04/26 05:47:48;;;;;;;6.97;5.57;;;;;;;7.49;76.46;100434.22;5012253;28;20088;-68
2022/04/26 05:50:14;;;;;;;7.00;6.20;;;;;;;7.56;77.01;100414.94;4985152;28;20038;-74
2022/04/26 05:52:39;;;;;;;7.53;5.13;;;;;;;7.53;76.20;100409.94;4978592;28;20034;-72
2022/04/26 05:55:07;;;;;;;7.57;5.67;;;;;;;7.54;76.57;100419.53;5012375;28;20030;-68
2022/04/26 05:57:39;;;;;;;9.30;5.70;;;;;;;7.59;76.64;100441.13;4994945;28;20578;-71
2022/04/26 06:00:07;;;;;;;6.30;5.03;;;;;;;7.50;77.08;100426.09;5011472;28;20121;-69
2022/04/26 06:02:33;;;;;;;6.85;5.60;;;;;;;7.53;77.07;100431.13;5011593;28;20077;-70
2022/04/26 06:04:59;;;;;;;6.50;5.53;;;;;;;7.55;76.80;100430.97;5011704;28;20472;-70
2022/04/26 06:07:24;;;;;;;6.67;5.97;;;;;;;7.60;77.20;100434.84;5012380;28;20709;-66
2022/04/26 06:09:53;;;;;;;6.20;4.90;;;;;;;7.57;77.89;100435.13;5011927;28;20048;-68
2022/04/26 06:12:20;;;;;;;9.68;6.30;;;;;;;7.52;78.29;100428.59;5012474;28;20057;-68
2022/04/26 06:14:46;;;;;;;7.60;6.23;;;;;;;7.49;77.45;100440.34;5013043;28;20045;-70
2022/04/26 06:17:11;;;;;;;5.80;5.20;;;;;;;7.49;78.84;100421.78;5001337;28;20038;-69
2022/04/26 06:19:37;;;;;;;5.77;5.00;;;;;;;7.45;78.08;100428.38;5022346;28;20091;-74
2022/04/26 06:22:24;;;;;;;6.17;5.03;;;;;;;7.51;77.53;100443.66;5015249;28;20120;-75
2022/04/26 06:24:51;;;;;;;7.90;5.60;;;;;;;7.41;78.47;100427.84;5012405;28;20112;-71
2022/04/26 06:27:18;;;;;;;6.23;5.37;;;;;;;7.53;78.11;100430.28;5012397;28;20481;-73
2022/04/26 06:29:44;;;;;;;9.40;5.20;;;;;;;7.58;78.29;100438.63;5011842;28;20048;-73
2022/04/26 06:32:11;;;;;;;7.23;5.67;;;;;;;7.57;76.95;100432.50;4995129;28;20060;-74
2022/04/26 06:34:37;;;;;;;8.30;5.40;;;;;;;7.60;78.04;100441.94;5017435;28;20081;-72
2022/04/26 06:37:03;;;;;;;8.10;5.73;;;;;;;7.48;77.56;100433.38;5024911;28;20183;-71
2022/04/26 06:39:28;;;;;;;6.43;5.17;;;;;;;7.54;77.39;100443.41;5022889;28;20138;-72
2022/04/26 06:41:54;;;;;;;8.57;5.70;;;;;;;7.56;77.66;100441.44;5013946;28;20037;-72
2022/04/26 06:44:19;;;;;;;7.80;6.23;;;;;;;7.60;76.79;100447.25;5012166;28;20061;-72
2022/04/26 06:46:45;;;;;;;7.30;5.93;;;;;;;7.64;77.34;100454.75;5012505;28;20030;-72
2022/04/26 06:49:10;;;;;;;6.93;5.37;;;;;;;7.56;77.41;100433.47;5012064;28;20038;-73
2022/04/26 06:51:40;;;;;;;7.30;5.83;;;;;;;7.74;77.35;100447.53;4994868;28;20077;-73
2022/04/26 06:54:07;;;;;;;7.17;5.83;;;;;;;7.72;77.01;100443.38;5012302;28;20034;-67
2022/04/26 06:56:35;;;;;;;6.10;5.27;;;;;;;7.75;76.58;100445.72;5011912;28;20065;-64
2022/04/26 06:59:03;;;;;;;7.70;6.13;;;;;;;7.70;76.01;100454.13;5012506;28;20133;-71
2022/04/26 07:01:29;;;;;;;9.97;6.33;;;;;;;7.80;76.98;100459.34;5011981;28;20046;-68
2022/04/26 07:03:54;;;;;;;7.30;5.47;;;;;;;7.89;76.77;100457.63;5011710;28;20132;-71
2022/04/26 07:06:19;;;;;;;16.90;6.90;;;;;;;7.96;77.73;100458.66;5018743;28;20037;-66
2022/04/26 07:08:46;;;;;;;8.73;6.27;;;;;;;7.98;75.26;100456.69;5013516;28;20111;-71
2022/04/26 07:11:14;;;;;;;6.87;4.93;;;;;;;7.93;74.99;100445.72;5013529;28;20592;-70
2022/04/26 07:13:39;;;;;;;17.13;4.88;;;;;;;7.91;73.80;100442.41;5011882;28;20030;-70
2022/04/26 07:16:06;;;;;;;6.63;5.17;;;;;;;7.83;75.06;100447.63;5012063;28;20049;-71
2022/04/26 07:18:32;;;;;;;6.13;5.57;;;;;;;7.83;74.08;100463.53;5011465;28;20034;-71
2022/04/26 07:20:58;;;;;;;11.47;6.30;;;;;;;7.78;74.26;100456.84;5013672;28;20120;-71
2022/04/26 07:23:23;;;;;;;7.60;5.37;;;;;;;7.82;74.53;100461.88;4997933;28;20124;-68
2022/04/26 07:25:51;;;;;;;9.00;5.30;;;;;;;7.77;74.23;100459.66;5015597;28;20037;-67
2022/04/26 07:28:19;;;;;;;8.82;6.32;;;;;;;7.88;74.65;100469.22;5016094;28;20072;-68
2022/04/26 07:30:45;;;;;;;14.47;5.93;;;;;;;8.03;75.14;100465.03;5016066;28;20092;-70
2022/04/26 07:35:58;;;;;;;7.20;5.47;;;;;;;8.34;73.75;100465.44;5015668;28;20069;-69
2022/04/26 07:38:24;;;;;;;10.13;5.50;;;;;;;8.46;73.50;100461.56;4998285;28;20080;-68
2022/04/26 07:40:49;;;;;;;8.73;7.00;;;;;;;8.51;72.78;100458.44;5015303;28;20129;-64
2022/04/26 07:43:15;;;;;;;5.53;4.73;;;;;;;8.37;71.46;100436.78;4997717;28;20081;-63
2022/04/26 07:45:43;;;;;;;11.47;5.20;;;;;;;8.50;70.94;100457.63;5015106;28;20035;-71
2022/04/26 07:48:08;;;;;;;10.63;6.30;;;;;;;8.51;70.68;100464.59;4997685;28;20076;-65
2022/04/26 07:50:36;;;;;;;7.73;5.73;;;;;;;8.50;70.94;100459.44;5015223;28;20065;-74
2022/04/26 07:53:02;;;;;;;9.57;5.53;;;;;;;8.70;70.86;100479.47;5015099;28;20145;-71
2022/04/26 07:55:30;;;;;;;16.17;6.17;;;;;;;8.75;70.68;100469.22;5014489;28;20022;-72
2022/04/26 07:58:00;;;;;;;10.10;5.57;;;;;;;8.87;70.65;100481.22;5015113;28;20050;-69
2022/04/26 08:00:26;;;;;;;9.83;5.83;;;;;;;9.07;70.90;100486.28;5015182;28;20151;-68
2022/04/26 08:02:52;;;;;;;12.47;5.23;;;;;;;8.93;69.87;100464.63;4997594;28;20038;-69
2022/04/26 08:05:18;;;;;;;5.87;4.93;;;;;;;9.10;69.50;100478.00;5015025;28;20041;-69
2022/04/26 08:07:44;;;;;;;6.60;5.73;;;;;;;9.34;69.18;100491.38;4997024;28;20045;-74
2022/04/26 08:10:11;;;;;;;6.40;4.60;;;;;;;9.55;68.73;100491.78;5014046;28;20037;-75
2022/04/26 08:12:38;;;;;;;8.50;5.73;;;;;;;9.75;68.48;100491.47;5014832;28;20034;-70
2022/04/26 08:15:04;;;;;;;10.60;6.33;;;;;;;9.87;67.09;100500.81;5014703;28;20056;-74
2022/04/26 08:17:30;;;;;;;9.50;6.20;;;;;;;9.82;66.92;100505.78;5014418;28;20404;-72
2022/04/26 08:19:55;;;;;;;9.30;6.03;;;;;;;9.47;67.54;100491.75;5014480;28;20046;-68
2022/04/26 08:22:21;;;;;;;17.07;7.43;;;;;;;9.57;67.85;100511.06;5014452;28;20034;-67
2022/04/26 08:27:33;;;;;;;15.90;8.13;;;;;;;9.57;67.60;100516.38;5014316;28;20078;-72
2022/04/26 08:29:59;;;;;;;13.75;6.55;;;;;;;9.66;67.09;100503.09;5014280;28;20459;-68
2022/04/26 08:32:28;;;;;;;10.30;5.50;;;;;;;9.77;66.42;100503.59;5013689;28;20409;-72
2022/04/26 08:34:54;;;;;;;;;;;;;;;9.96;66.27;100510.47;5014549;28;20105;-68
2022/04/26 08:37:20;;;;;;;8.80;6.47;;;;;;;10.04;66.17;100475.03;5014177;28;20356;-67
2022/04/26 08:39:47;;;;;;;11.27;6.57;;;;;;;10.55;65.17;100500.50;5013938;28;20456;-68
2022/04/26 08:42:14;;;;;;;11.13;5.93;;;;;;;10.43;63.96;100507.19;5014273;28;20038;-68
2022/04/26 08:44:40;;;;;;;11.63;6.70;;;;;;;10.53;63.82;100508.66;5014182;28;20038;-69
2022/04/26 08:52:49;;;;;;;12.13;5.87;;;;;;;10.34;63.01;100518.81;5014198;28;20041;-64
2022/04/26 08:55:15;;;;;;;12.37;6.43;;;;;;;10.26;64.20;100521.50;5013550;28;20088;-66
2022/04/26 08:57:42;;;;;;;11.97;5.93;;;;;;;10.21;63.10;100530.81;4995716;28;20085;-62
2022/04/26 09:00:11;;;;;;;13.60;8.30;;;;;;;9.99;63.69;100533.25;5013583;28;20042;-65
2022/04/26 09:02:38;;;;;;;;;;;;;;;9.96;64.29;100537.06;5014122;28;20046;-63
2022/04/26 09:05:13;;;;;;;10.47;5.87;;;;;;;10.00;64.73;100526.91;5013706;28;20015;-62
2022/04/26 09:07:40;;;;;;;11.57;6.63;;;;;;;10.04;63.23;100529.09;5013362;28;20409;-65
2022/04/26 09:10:16;;;;;;;11.00;5.80;;;;;;;9.89;62.88;100522.75;5013475;28;20064;-69
2022/04/26 09:12:57;;;;;;;13.90;5.67;;;;;;;9.89;62.72;100541.38;5013334;28;20124;-67
2022/04/26 09:15:22;;;;;;;11.20;5.10;;;;;;;9.74;62.33;100535.84;4996077;28;20037;-67
2022/04/26 09:17:48;;;;;;;8.67;5.27;;;;;;;9.81;62.59;100528.88;5013752;28;20128;-68
2022/04/26 09:20:13;;;;;;;8.20;5.10;;;;;;;9.95;61.88;100532.75;5013390;28;20174;-68
2022/04/26 09:22:39;;;;;;;11.20;5.73;;;;;;;9.91;60.92;100526.09;5013266;28;20034;-69
2022/04/26 09:25:07;;;;;;;10.97;5.93;;;;;;;9.93;61.51;100529.41;5013197;28;20139;-69
2022/04/26 09:27:38;;;;;;;7.53;5.15;;;;;;;10.10;60.71;100539.06;5013275;28;20034;-62
2022/04/26 09:30:12;;;;;;;9.70;5.10;;;;;;;10.15;59.38;100512.81;5013235;28;20041;-62
2022/04/26 09:32:48;;;;;;;9.70;4.83;;;;;;;10.33;57.61;100544.59;5013141;28;20046;-64
2022/04/26 09:35:22;;;;;;;8.00;4.10;;;;;;;10.21;57.03;100556.59;5013338;28;20069;-70
2022/04/26 09:37:48;;;;;;;10.33;4.53;;;;;;;10.08;58.48;100557.03;4995371;28;20401;-68
2022/04/26 09:40:13;;;;;;;8.90;5.03;;;;;;;9.93;58.90;100558.69;5013175;28;20041;-65
2022/04/26 09:42:39;;;;;;;9.83;5.07;;;;;;;9.86;59.28;100555.84;5013765;28;20037;-64
2022/04/26 09:45:09;;;;;;;6.67;4.80;;;;;;;9.87;58.33;100562.00;5012339;28;20040;-65
2022/04/26 09:47:39;;;;;;;7.67;4.03;;;;;;;9.83;56.80;100569.47;5012589;28;20038;-67
2022/04/26 09:50:10;;;;;;;6.97;4.17;;;;;;;9.18;58.39;100493.97;5012573;28;20034;-65
2022/04/26 09:52:37;;;;;;;6.90;4.10;;;;;;;9.68;58.00;100556.94;5011390;28;20037;-66
2022/04/26 09:55:07;;;;;;;12.03;4.70;;;;;;;9.94;55.94;100563.00;5012621;28;20038;-66
2022/04/26 09:57:33;;;;;;;7.73;3.87;;;;;;;10.07;52.94;100592.63;5012817;28;20057;-65
2022/04/26 10:00:10;;;;;;;5.40;3.43;;;;;;;9.84;52.49;100578.28;5012834;28;20397;-65
2022/04/26 10:02:38;;;;;;;8.07;3.80;;;;;;;9.99;53.51;100578.47;5012781;28;20126;-65
2022/04/26 10:05:07;;;;;;;9.77;3.30;;;;;;;10.19;52.70;100582.50;5012433;28;20049;-63
2022/04/26 10:07:48;;;;;;;10.77;3.60;;;;;;;10.50;52.14;100609.34;5012327;28;20578;-66
2022/04/26 10:10:14;;;;;;;8.13;3.30;;;;;;;10.59;52.59;100604.84;5012523;28;20029;-64
2022/04/26 10:12:42;;;;;;;13.33;4.03;;;;;;;10.82;52.32;100616.50;4995005;28;20044;-65
2022/04/26 10:15:09;;;;;;;6.47;3.50;;;;;;;10.76;52.78;100596.69;5012408;28;20034;-63
2022/04/26 10:17:34;;;;;;;6.63;2.73;;;;;;;10.82;51.76;100620.00;5012309;28;20038;-67
2022/04/26 10:20:00;;;;;;;5.70;3.53;;;;;;;10.73;51.37;100583.72;5012492;28;20065;-67
2022/04/26 10:22:53;;;;;;;6.40;3.07;;;;;;;10.98;51.82;100618.31;5012360;28;20049;-66
2022/04/26 10:25:21;;;;;;;8.60;2.80;;;;;;;10.86;48.63;100618.66;5011983;28;20037;-66
2022/04/26 10:28:26;;;;;;;5.00;3.37;;;;;;;10.68;49.30;100623.31;5014758;28;20481;-66
2022/04/26 10:30:54;;;;;;;6.10;2.97;;;;;;;10.59;48.35;100618.16;4933292;29;20040;-63
2022/04/26 10:33:34;;;;;;;12.50;3.80;;;;;;;10.48;49.07;100629.97;5001978;28;20061;-61
2022/04/26 10:36:18;;;;;;;;;;;;;;;10.70;50.73;100632.00;5012701;28;20040;-63
2022/04/26 10:39:09;;;;;;;4.73;3.20;;;;;;;10.70;50.52;100631.16;5012132;28;19960;-63
2022/04/26 10:41:39;;;;;;;4.80;3.20;;;;;;;10.72;51.00;100640.66;5012379;28;20037;-63
2022/04/26 10:44:14;;;;;;;5.03;2.83;;;;;;;10.71;51.31;100638.16;5012219;28;20489;-64
2022/04/26 10:46:43;;;;;;;8.53;3.63;;;;;;;10.62;52.10;100639.13;5012455;28;20129;-64
2022/04/26 10:49:29;;;;;;;10.47;3.77;;;;;;;10.44;51.88;100648.13;5011771;28;20048;-62
2022/04/26 10:51:56;;;;;;;7.07;3.50;;;;;;;10.34;51.56;100652.75;5011789;28;20088;-64
2022/04/26 10:54:58;;;;;;;12.63;4.33;;;;;;;10.14;52.12;100646.88;5011645;28;20466;-64
2022/04/26 10:57:31;;;;;;;13.17;3.60;;;;;;;9.91;53.37;100654.59;5015204;28;20064;-63
2022/04/26 11:00:00;;;;;;;7.27;3.97;;;;;;;9.66;54.38;100641.38;5015919;28;20042;-65
2022/04/26 11:02:26;;;;;;;;;;;;;;;9.63;56.25;100653.16;5015153;28;20064;-61
2022/04/26 11:05:08;;;;;;;11.23;4.00;;;;;;;9.26;57.42;100613.59;5015771;28;20462;-62
2022/04/26 11:07:35;;;;;;;9.20;4.03;;;;;;;9.46;57.02;100646.91;5015406;28;20444;-63
2022/04/26 11:10:00;;;;;;;6.63;3.13;;;;;;;9.59;58.07;100668.59;5016441;28;20496;-70
2022/04/26 11:12:28;;;;;;;4.23;3.63;;;;;;;9.53;57.54;100679.84;5016094;28;20030;-62
2022/04/26 11:14:58;;;;;;;10.67;3.93;;;;;;;9.54;57.97;100670.91;5015990;28;20042;-65
2022/04/26 11:17:25;;;;;;;8.53;3.73;;;;;;;9.47;58.36;100663.69;5015864;28;20574;-65
2022/04/26 11:19:55;;;;;;;7.90;3.50;;;;;;;9.62;58.15;100678.91;5015768;28;20072;-66
2022/04/26 11:22:22;;;;;;;11.70;4.10;;;;;;;9.68;58.32;100666.81;5016045;28;20389;-63
2022/04/26 11:30:36;;;;;;;7.03;2.80;;;;;;;10.13;56.71;100686.94;5015619;28;20041;-64
2022/04/26 11:33:19;;;;;;;3.90;2.90;;;;;;;9.92;56.74;100684.69;5015750;28;20472;-62
2022/04/26 11:35:52;;;;;;;6.70;2.60;;;;;;;9.85;57.58;100694.31;5015729;28;20050;-64
2022/04/26 11:38:18;;;;;;;11.23;2.73;;;;;;;9.84;57.73;100697.97;5018653;28;20045;-66
2022/04/26 11:40:51;;;;;;;5.07;3.13;;;;;;;9.88;57.52;100686.03;5014345;28;20037;-66
2022/04/26 11:43:18;;;;;;;5.97;3.30;;;;;;;10.15;57.26;100707.06;5015073;28;20030;-66
2022/04/26 11:45:47;;;;;;;7.90;3.20;;;;;;;10.04;56.66;100698.53;5015051;28;20125;-63
2022/04/26 11:48:34;;;;;;;5.68;2.85;;;;;;;9.94;57.81;100704.81;5015198;28;20052;-65
2022/04/26 11:51:00;;;;;;;10.20;2.57;;;;;;;9.67;57.37;100704.19;5015883;28;20034;-61
2022/04/26 11:53:28;;;;;;;6.13;2.87;;;;;;;9.56;58.00;100719.44;5016779;28;20025;-62
2022/04/26 11:55:56;;;;;;;9.00;3.07;;;;;;;9.44;59.06;100717.19;5015047;28;20061;-62
2022/04/26 11:58:28;;;;;;;5.67;3.33;;;;;;;9.40;58.86;100711.34;5013794;28;20053;-63
2022/04/26 12:01:02;;;;;;;9.50;2.83;;;;;;;9.31;58.29;100728.22;5014885;28;20819;-64
2022/04/26 12:03:43;;;;;;;9.00;3.10;;;;;;;9.11;59.72;100705.47;5014590;28;20038;-62
2022/04/26 12:06:10;;;;;;;4.47;2.40;;;;;;;9.27;58.40;100735.69;5014582;28;20037;-66
2022/04/26 12:08:39;;;;;;;5.97;2.07;;;;;;;9.17;58.79;100731.44;5011967;28;20037;-64
2022/04/26 12:11:24;;;;;;;5.65;2.25;;;;;;;9.38;58.39;100744.38;5013343;28;20459;-68
2022/04/26 12:14:08;;;;;;;11.57;2.70;;;;;;;9.40;58.39;100734.44;5014721;28;20037;-65
2022/04/26 12:16:47;;;;;;;8.43;2.70;;;;;;;9.52;57.44;100746.47;5014620;28;20045;-69
2022/04/26 12:19:12;;;;;;;;;;;;;;;9.61;58.12;100745.53;5015134;28;20124;-69
2022/04/26 12:21:52;;;;;;;6.13;2.67;;;;;;;9.48;57.74;100751.25;5013805;28;19999;-72
2022/04/26 12:24:27;;;;;;;11.57;2.90;;;;;;;9.52;58.16;100734.00;5014717;28;20057;-69
2022/04/26 12:26:56;;;;;;;7.67;2.73;;;;;;;9.40;58.53;100732.59;5013499;28;20045;-70
2022/04/26 12:29:43;;;;;;;4.13;2.33;;;;;;;9.31;58.63;100729.06;5013964;28;20517;-70
2022/04/26 12:32:10;;;;;;;12.60;3.07;;;;;;;9.32;58.97;100741.38;5012534;28;20061;-72
2022/04/26 12:34:36;;;;;;;23.03;5.40;;;;;;;9.14;58.70;100710.47;5013013;28;20030;-71
2022/04/26 12:37:06;;;;;;;4.67;2.13;;;;;;;9.33;59.16;100742.19;5012946;28;20058;-71
2022/04/26 12:39:38;;;;;;;4.30;2.03;;;;;;;9.55;59.34;100757.66;5014243;28;20037;-71
2022/04/26 12:42:04;;;;;;;7.00;2.00;;;;;;;9.63;58.55;100764.84;5014186;28;20038;-69
2022/04/26 12:44:30;;;;;;;8.67;2.83;;;;;;;9.77;58.58;100769.56;5014021;28;20100;-70
2022/04/26 12:50:28;;;;;;;25.50;3.70;;;;;;;10.07;57.83;100770.88;5013540;28;20057;-65
2022/04/26 12:52:56;;;;;;;102.00;10.70;;;;;;;9.82;58.66;100747.81;5013643;28;20026;-65
2022/04/26 12:55:33;;;;;;;5.17;2.17;;;;;;;10.01;58.80;100778.69;5013936;28;20029;-67
2022/04/26 12:58:03;;;;;;;8.43;3.17;;;;;;;9.75;57.28;100752.09;5013502;28;20120;-63
2022/04/26 13:00:29;;;;;;;20.70;4.10;;;;;;;9.64;57.16;100761.19;5013803;28;20041;-64
2022/04/26 13:02:58;;;;;;;7.07;2.20;;;;;;;9.76;56.55;100785.69;5014212;28;20034;-63
2022/04/26 13:05:23;;;;;;;6.43;1.90;;;;;;;9.91;56.94;100784.13;5013697;28;20030;-63
2022/04/26 13:07:49;;;;;;;4.20;2.17;;;;;;;9.85;55.61;100790.91;5013616;28;20107;-65
2022/04/26 13:10:16;;;;;;;6.90;2.17;;;;;;;9.87;56.43;100796.06;5012960;28;20727;-63
2022/04/26 13:12:42;;;;;;;7.03;2.30;;;;;;;9.83;56.39;100792.91;5012966;28;20195;-63
2022/04/26 13:15:08;;;;;;;5.40;2.40;;;;;;;9.79;56.45;100782.69;5012807;28;20136;-63
2022/04/26 13:17:37;;;;;;;5.53;2.47;;;;;;;9.76;56.01;100801.63;5013071;28;20124;-64
2022/04/26 13:20:08;;;;;;;6.07;1.97;;;;;;;9.65;56.36;100800.06;5012427;28;20099;-64
2022/04/26 13:22:35;;;;;;;7.43;2.40;;;;;;;9.42;56.37;100796.25;5012920;28;20069;-62
2022/04/26 13:25:04;;;;;;;7.93;1.90;;;;;;;9.40;55.99;100766.31;5012998;28;20048;-63
2022/04/26 13:27:31;;;;;;;5.73;2.20;;;;;;;9.83;55.62;100808.00;5013606;28;20516;-64
2022/04/26 13:29:57;;;;;;;2.80;1.90;;;;;;;9.87;54.23;100812.88;5013209;28;20401;-66
2022/04/26 13:32:22;;;;;;;5.67;2.17;;;;;;;9.96;54.08;100819.06;5013136;28;20099;-63
2022/04/26 13:34:48;;;;;;;6.53;1.90;;;;;;;9.94;52.91;100802.44;5013318;28;20038;-61
2022/04/26 13:37:17;;;;;;;14.07;2.73;;;;;;;9.72;53.81;100824.22;5013149;28;20046;-63
2022/04/26 13:39:45;;;;;;;11.63;2.50;;;;;;;9.54;53.96;100818.91;5013411;28;20038;-63
2022/04/26 13:42:14;;;;;;;2.47;1.73;;;;;;;9.54;53.71;100829.56;5029030;28;20037;-63
2022/04/26 13:44:41;;;;;;;5.50;2.17;;;;;;;9.43;53.17;100777.47;5013082;28;20034;-63
2022/04/26 13:47:07;;;;;;;7.70;1.77;;;;;;;9.89;52.41;100812.72;5012941;28;20033;-62
2022/04/26 13:49:35;;;;;;;12.20;2.50;;;;;;;9.68;52.21;100782.97;5012813;28;20378;-64
2022/04/26 13:52:03;;;;;;;2.77;1.93;;;;;;;9.96;51.44;100820.88;5014097;28;20503;-63
2022/04/26 13:54:28;;;;;;;5.13;2.13;;;;;;;9.99;51.78;100812.59;5013110;28;20148;-65
2022/04/26 13:56:55;;;;;;;3.80;2.17;;;;;;;9.93;50.63;100832.69;5013735;28;20580;-64
2022/04/26 13:59:25;;;;;;;2.33;1.30;;;;;;;9.47;50.28;100823.19;5014433;28;20090;-64
2022/04/26 14:01:53;;;;;;;2.47;1.30;;;;;;;9.35;51.71;100819.13;5013076;28;20080;-63
2022/04/26 14:04:19;;;;;;;3.10;1.30;;;;;;;9.45;51.43;100831.31;5012386;28;20087;-64
2022/04/26 14:06:46;;;;;;;5.17;2.00;;;;;;;9.51;51.96;100830.69;5012186;28;20042;-63
2022/04/26 14:09:12;;;;;;;3.03;1.20;;;;;;;9.52;50.31;100831.53;5012608;28;20034;-62
2022/04/26 14:11:37;;;;;;;6.23;1.50;;;;;;;9.22;50.17;100830.13;5012295;28;20040;-63
2022/04/26 14:22:15;;;;;;;5.93;3.13;;;;;;;9.10;49.13;100802.94;5011406;28;20041;-61
2022/04/26 14:24:42;;;;;;;1.73;1.30;;;;;;;9.05;48.88;100831.81;5012215;28;20030;-64
2022/04/26 14:27:08;;;;;;;7.47;1.80;;;;;;;9.08;54.18;100843.94;5012136;28;20121;-63
2022/04/26 14:29:33;;;;;;;4.80;1.90;;;;;;;8.92;55.96;100852.56;5011556;28;20130;-63
2022/04/26 14:32:00;;;;;;;5.63;1.90;;;;;;;8.61;57.91;100844.06;5011622;28;20048;-76
2022/04/26 14:34:26;;;;;;;23.37;3.20;;;;;;;8.23;59.34;100806.09;5012160;28;20112;-72
2022/04/26 14:36:51;;;;;;;7.60;2.53;;;;;;;8.47;59.80;100866.66;5012376;28;20145;-69
2022/04/26 14:39:17;;;;;;;5.20;1.73;;;;;;;8.51;59.56;100878.66;5011458;28;20540;-65
2022/04/26 14:41:43;;;;;;;5.03;1.50;;;;;;;8.45;59.63;100873.94;5012122;28;20048;-63
2022/04/26 14:44:09;;;;;;;7.27;3.23;;;;;;;8.33;59.68;100875.91;5013723;28;20083;-67
2022/04/26 14:46:34;;;;;;;2.23;1.77;;;;;;;8.28;59.46;100875.47;5014064;28;20386;-61
2022/04/26 14:49:00;;;;;;;3.17;1.83;;;;;;;8.37;59.46;100874.63;5013084;28;20041;-63
2022/04/26 14:51:25;;;;;;;4.10;1.80;;;;;;;8.41;57.87;100887.63;5013188;28;20033;-63
2022/04/26 14:53:51;;;;;;;4.17;2.03;;;;;;;8.45;58.14;100902.28;5013710;28;20058;-61
2022/04/26 14:56:18;;;;;;;7.17;2.13;;;;;;;8.56;58.12;100910.06;5013923;28;20041;-68
2022/04/26 14:58:46;;;;;;;2.33;1.83;;;;;;;8.56;58.14;100899.44;5013169;28;20046;-64
2022/04/26 15:01:12;;;;;;;3.70;2.47;;;;;;;8.83;56.95;100902.09;5013815;28;20342;-64
2022/04/26 15:03:37;;;;;;;4.80;1.63;;;;;;;8.94;56.53;100903.72;5012892;28;20088;-68
2022/04/26 15:06:02;;;;;;;3.13;1.67;;;;;;;8.87;56.20;100894.69;5012036;28;20038;-68
2022/04/26 15:11:12;;;;;;;3.77;2.20;;;;;;;8.55;56.68;100921.66;5012761;28;20505;-68
2022/04/26 15:16:37;;;;;;;2.97;1.73;;;;;;;7.95;56.05;100913.13;5012107;28;20038;-67
2022/04/26 15:19:07;;;;;;;3.80;1.27;;;;;;;8.02;56.67;100935.44;5010594;28;20046;-66
2022/04/26 15:21:33;;;;;;;1.73;1.40;;;;;;;7.89;56.75;100945.53;5011033;28;20034;-65
2022/04/26 15:23:59;;;;;;;6.00;1.30;;;;;;;7.82;58.54;100941.75;5011785;28;20044;-66
2022/04/26 15:26:25;;;;;;;1.40;1.27;;;;;;;7.86;58.23;100932.53;5011927;28;20038;-63
2022/04/26 15:28:51;;;;;;;1.20;1.10;;;;;;;7.90;59.04;100931.28;5011298;28;20088;-69
2022/04/26 15:31:20;;;;;;;2.33;1.20;;;;;;;7.97;57.88;100940.34;5011868;28;20037;-69
2022/04/26 15:33:48;;;;;;;7.43;1.80;;;;;;;7.99;59.11;100925.97;5011462;28;20040;-68
2022/04/26 15:36:16;;;;;;;4.83;2.23;;;;;;;7.51;59.14;100835.03;5011247;28;20037;-67
2022/04/26 15:38:42;;;;;;;3.50;2.77;;;;;;;8.12;58.42;100936.28;5011553;28;20096;-66
2022/04/26 15:41:09;;;;;;;9.03;2.70;;;;;;;7.96;59.08;100920.09;5011552;28;20053;-66
2022/04/26 15:43:36;;;;;;;3.67;1.50;;;;;;;7.91;58.94;100928.50;5014885;28;20092;-70
2022/04/26 15:46:08;;;;;;;1.73;1.33;;;;;;;7.81;59.06;100916.22;5015257;28;20034;-65
2022/04/26 15:48:37;;;;;;;8.80;2.10;;;;;;;7.82;59.94;100941.75;5014638;28;20050;-68
2022/04/26 15:51:06;;;;;;;4.50;1.90;;;;;;;7.76;60.20;100941.31;5014730;28;20038;-68
2022/04/26 15:53:32;;;;;;;;;;;;;;;7.82;60.06;100953.19;5015497;28;20034;-67